createdAt,value
2018-01-07T00:00:15.037Z,47.61
2018-01-07T00:01:15.052Z,47.61
2018-01-07T00:02:15.032Z,47.41
2018-01-07T00:03:15.033Z,47.51
2018-01-07T00:04:15.026Z,47.41
2018-01-07T00:05:15.027Z,47.31
2018-01-07T00:06:15.007Z,47.31
2018-01-07T00:07:15.032Z,47.41
2018-01-07T00:08:15.071Z,47.31
2018-01-07T00:09:15.008Z,47.31
2018-01-07T00:10:15.043Z,47.31
2018-01-07T00:11:15.013Z,47.22
2018-01-07T00:12:15.007Z,47.41
2018-01-07T00:13:15.012Z,47.41
2018-01-07T00:14:14.998Z,47.22
2018-01-07T00:15:15.003Z,47.31
2018-01-07T00:16:15.001Z,47.22
2018-01-07T00:17:14.996Z,47.22
2018-01-07T00:18:14.999Z,47.41
2018-01-07T00:19:14.996Z,47.22
2018-01-07T00:20:14.983Z,47.31
2018-01-07T00:21:14.990Z,47.31
2018-01-07T00:22:15.018Z,47.13
2018-01-07T00:23:14.985Z,47.22
2018-01-07T00:24:14.979Z,47.31
2018-01-07T00:25:14.984Z,47.22
2018-01-07T00:26:14.969Z,47.22
2018-01-07T00:27:14.971Z,47.22
2018-01-07T00:28:14.965Z,47.31
2018-01-07T00:29:14.969Z,47.31
2018-01-07T00:30:14.961Z,47.31
2018-01-07T00:31:14.972Z,47.22
2018-01-07T00:32:14.959Z,47.31
2018-01-07T00:33:14.956Z,47.31
2018-01-07T00:34:14.969Z,47.22
2018-01-07T00:35:14.973Z,47.22
2018-01-07T00:36:14.963Z,47.31
2018-01-07T00:37:14.960Z,47.22
2018-01-07T00:38:14.943Z,47.41
2018-01-07T00:39:14.955Z,47.31
2018-01-07T00:40:14.939Z,47.31
2018-01-07T00:41:14.937Z,47.70
2018-01-07T00:42:14.942Z,47.61
2018-01-07T00:43:14.938Z,47.61
2018-01-07T00:44:14.927Z,47.31
2018-01-07T00:45:14.926Z,47.41
2018-01-07T00:46:14.934Z,47.51
2018-01-07T00:47:14.922Z,47.41
2018-01-07T00:48:14.930Z,47.70
2018-01-07T00:49:14.931Z,47.89
2018-01-07T00:50:14.919Z,47.41
2018-01-07T00:51:14.909Z,47.41
2018-01-07T00:52:14.909Z,47.61
2018-01-07T00:53:14.911Z,47.89
2018-01-07T00:54:14.912Z,47.51
2018-01-07T00:55:14.909Z,47.70
2018-01-07T00:56:14.903Z,47.70
2018-01-07T00:57:14.899Z,47.80
2018-01-07T00:58:14.903Z,47.89
2018-01-07T00:59:14.912Z,47.51
2018-01-07T01:00:14.888Z,47.70
2018-01-07T01:01:14.897Z,47.51
2018-01-07T01:02:14.888Z,47.61
2018-01-07T01:03:14.894Z,47.61
2018-01-07T01:04:14.880Z,47.80
2018-01-07T01:05:14.884Z,47.70
2018-01-07T01:06:14.872Z,47.89
2018-01-07T01:07:14.873Z,47.58
2018-01-07T01:08:14.873Z,47.70
2018-01-07T01:09:14.874Z,47.68
2018-01-07T01:10:14.865Z,47.70
2018-01-07T01:11:14.872Z,47.89
2018-01-07T01:12:14.870Z,47.68
2018-01-07T01:13:14.884Z,47.68
2018-01-07T01:14:14.855Z,47.61
2018-01-07T01:15:14.854Z,47.77
2018-01-07T01:16:14.864Z,47.68
2018-01-07T01:17:14.853Z,47.80
2018-01-07T01:18:14.842Z,47.58
2018-01-07T01:19:14.847Z,47.87
2018-01-07T01:20:14.851Z,47.87
2018-01-07T01:21:14.859Z,47.87
2018-01-07T01:22:14.863Z,47.51
2018-01-07T01:23:14.878Z,47.70
2018-01-07T01:24:14.835Z,47.70
2018-01-07T01:25:14.832Z,47.61
2018-01-07T01:26:14.838Z,47.70
2018-01-07T01:27:14.823Z,47.80
2018-01-07T01:28:14.820Z,47.31
2018-01-07T01:29:14.814Z,47.31
2018-01-07T01:30:14.821Z,47.22
2018-01-07T01:31:14.839Z,47.22
2018-01-07T01:32:14.809Z,47.31
2018-01-07T01:33:14.814Z,47.51
2018-01-07T01:34:14.809Z,47.31
2018-01-07T01:35:14.810Z,47.13
2018-01-07T01:36:14.826Z,47.31
2018-01-07T01:37:14.803Z,47.31
2018-01-07T01:38:14.812Z,47.51
2018-01-07T01:39:14.802Z,47.41
2018-01-07T01:40:14.794Z,47.41
2018-01-07T01:41:14.794Z,47.41
2018-01-07T01:42:14.793Z,47.22
2018-01-07T01:43:14.789Z,47.41
2018-01-07T01:44:14.800Z,47.41
2018-01-07T01:45:14.788Z,47.51
2018-01-07T01:46:14.778Z,47.51
2018-01-07T01:47:14.765Z,47.41
2018-01-07T01:48:14.777Z,47.31
2018-01-07T01:49:14.761Z,47.51
2018-01-07T01:50:14.786Z,47.51
2018-01-07T01:51:14.769Z,47.61
2018-01-07T01:52:14.766Z,47.31
2018-01-07T01:53:14.790Z,47.31
2018-01-07T01:54:14.760Z,47.31
2018-01-07T01:55:14.760Z,47.51
2018-01-07T01:56:14.754Z,47.61
2018-01-07T01:57:14.749Z,47.41
2018-01-07T01:58:14.749Z,47.61
2018-01-07T01:59:14.761Z,47.41
2018-01-07T02:00:14.746Z,47.51
2018-01-07T02:01:14.754Z,47.41
2018-01-07T02:02:14.739Z,47.41
2018-01-07T02:03:14.743Z,47.51
2018-01-07T02:04:14.740Z,47.51
2018-01-07T02:05:14.732Z,47.41
2018-01-07T02:06:14.730Z,47.51
2018-01-07T02:07:14.738Z,47.31
2018-01-07T02:08:14.720Z,47.41
2018-01-07T02:09:14.721Z,47.41
2018-01-07T02:10:14.722Z,47.31
2018-01-07T02:11:14.711Z,47.51
2018-01-07T02:12:14.719Z,47.41
2018-01-07T02:13:14.716Z,47.41
2018-01-07T02:14:14.719Z,47.31
2018-01-07T02:15:14.719Z,47.22
2018-01-07T02:16:14.711Z,47.31
2018-01-07T02:17:14.712Z,47.31
2018-01-07T02:18:14.710Z,47.41
2018-01-07T02:19:14.700Z,47.31
2018-01-07T02:20:14.700Z,47.22
2018-01-07T02:21:14.697Z,47.31
2018-01-07T02:22:14.689Z,47.31
2018-01-07T02:23:14.699Z,47.13
2018-01-07T02:24:14.691Z,47.51
2018-01-07T02:25:14.689Z,47.41
2018-01-07T02:26:14.688Z,47.22
2018-01-07T02:27:14.685Z,47.31
2018-01-07T02:28:14.679Z,47.22
2018-01-07T02:29:14.682Z,47.31
2018-01-07T02:30:14.671Z,47.31
2018-01-07T02:31:14.675Z,47.31
2018-01-07T02:32:14.674Z,47.51
2018-01-07T02:33:14.663Z,47.22
2018-01-07T02:34:14.661Z,47.22
2018-01-07T02:35:14.667Z,47.31
2018-01-07T02:36:14.665Z,47.13
2018-01-07T02:37:14.662Z,47.31
2018-01-07T02:38:14.651Z,47.31
2018-01-07T02:39:14.648Z,47.22
2018-01-07T02:40:14.652Z,47.31
2018-01-07T02:41:14.644Z,47.31
2018-01-07T02:42:14.644Z,47.22
2018-01-07T02:43:14.642Z,47.22
2018-01-07T02:44:14.651Z,47.22
2018-01-07T02:45:14.636Z,47.41
2018-01-07T02:46:14.627Z,47.31
2018-01-07T02:47:14.641Z,47.22
2018-01-07T02:48:14.630Z,47.22
2018-01-07T02:49:14.631Z,47.13
2018-01-07T02:50:14.631Z,47.22
2018-01-07T02:51:14.658Z,47.41
2018-01-07T02:52:14.622Z,47.13
2018-01-07T02:53:14.616Z,47.41
2018-01-07T02:54:14.616Z,47.22
2018-01-07T02:55:14.613Z,47.31
2018-01-07T02:56:14.609Z,47.31
2018-01-07T02:57:14.616Z,47.41
2018-01-07T02:58:14.610Z,47.31
2018-01-07T02:59:14.612Z,47.31
2018-01-07T03:00:14.603Z,47.22
2018-01-07T03:01:14.594Z,47.22
2018-01-07T03:02:14.594Z,47.22
2018-01-07T03:03:14.615Z,47.22
2018-01-07T03:04:14.589Z,47.51
2018-01-07T03:05:14.582Z,47.13
2018-01-07T03:06:14.584Z,47.31
2018-01-07T03:07:14.592Z,47.41
2018-01-07T03:08:14.598Z,47.31
2018-01-07T03:09:14.572Z,47.39
2018-01-07T03:10:14.582Z,47.58
2018-01-07T03:11:14.580Z,47.31
2018-01-07T03:12:14.577Z,47.31
2018-01-07T03:13:14.574Z,47.39
2018-01-07T03:14:14.576Z,47.39
2018-01-07T03:15:14.570Z,47.80
2018-01-07T03:16:14.566Z,47.39
2018-01-07T03:17:14.556Z,47.31
2018-01-07T03:18:14.571Z,47.31
2018-01-07T03:19:14.555Z,47.41
2018-01-07T03:20:14.553Z,47.41
2018-01-07T03:21:14.547Z,47.49
2018-01-07T03:22:14.541Z,47.39
2018-01-07T03:23:14.561Z,47.39
2018-01-07T03:24:14.557Z,47.61
2018-01-07T03:25:14.541Z,47.70
2018-01-07T03:26:14.538Z,47.80
2018-01-07T03:27:14.528Z,47.80
2018-01-07T03:28:14.533Z,47.77
2018-01-07T03:29:14.542Z,47.89
2018-01-07T03:30:14.529Z,47.68
2018-01-07T03:31:14.542Z,47.41
2018-01-07T03:32:14.537Z,47.51
2018-01-07T03:33:14.521Z,47.80
2018-01-07T03:34:14.527Z,47.68
2018-01-07T03:35:14.513Z,47.77
2018-01-07T03:36:14.511Z,47.51
2018-01-07T03:37:14.522Z,47.80
2018-01-07T03:38:14.520Z,47.41
2018-01-07T03:39:14.514Z,47.51
2018-01-07T03:40:14.501Z,47.77
2018-01-07T03:41:14.499Z,47.68
2018-01-07T03:42:14.503Z,47.51
2018-01-07T03:43:14.496Z,47.80
2018-01-07T03:44:14.496Z,47.80
2018-01-07T03:45:14.500Z,47.41
2018-01-07T03:46:14.488Z,47.31
2018-01-07T03:47:14.490Z,47.22
2018-01-07T03:48:14.484Z,47.13
2018-01-07T03:49:14.484Z,47.31
2018-01-07T03:50:14.486Z,47.13
2018-01-07T03:51:14.473Z,47.31
2018-01-07T03:52:14.475Z,47.41
2018-01-07T03:53:14.468Z,47.61
2018-01-07T03:54:14.466Z,47.61
2018-01-07T03:55:14.472Z,47.51
2018-01-07T03:56:14.465Z,47.51
2018-01-07T03:57:14.481Z,47.61
2018-01-07T03:58:14.456Z,47.51
2018-01-07T03:59:14.465Z,47.41
2018-01-07T04:00:14.455Z,47.51
2018-01-07T04:01:14.446Z,47.70
2018-01-07T04:02:14.451Z,47.80
2018-01-07T04:03:14.446Z,47.51
2018-01-07T04:04:14.449Z,47.61
2018-01-07T04:05:14.446Z,47.70
2018-01-07T04:06:14.446Z,47.61
2018-01-07T04:07:14.437Z,47.61
2018-01-07T04:08:14.441Z,47.51
2018-01-07T04:09:14.432Z,47.22
2018-01-07T04:10:14.427Z,47.51
2018-01-07T04:11:14.432Z,47.22
2018-01-07T04:12:14.430Z,47.61
2018-01-07T04:13:14.432Z,47.61
2018-01-07T04:14:14.422Z,47.61
2018-01-07T04:15:14.428Z,47.61
2018-01-07T04:16:14.417Z,47.61
2018-01-07T04:17:14.422Z,47.51
2018-01-07T04:18:14.410Z,47.51
2018-01-07T04:19:14.406Z,47.51
2018-01-07T04:20:14.408Z,47.51
2018-01-07T04:21:14.402Z,47.61
2018-01-07T04:22:14.400Z,47.51
2018-01-07T04:23:14.387Z,47.51
2018-01-07T04:24:14.399Z,47.61
2018-01-07T04:25:14.396Z,47.41
2018-01-07T04:26:14.391Z,47.51
2018-01-07T04:27:14.388Z,47.51
2018-01-07T04:28:14.389Z,47.70
2018-01-07T04:29:14.387Z,47.51
2018-01-07T04:30:14.382Z,47.61
2018-01-07T04:31:14.373Z,47.61
2018-01-07T04:32:14.378Z,47.51
2018-01-07T04:33:14.377Z,47.51
2018-01-07T04:34:14.367Z,47.51
2018-01-07T04:35:14.363Z,47.22
2018-01-07T04:36:14.366Z,47.51
2018-01-07T04:37:14.366Z,47.22
2018-01-07T04:38:14.362Z,47.22
2018-01-07T04:39:14.355Z,47.51
2018-01-07T04:40:14.353Z,47.70
2018-01-07T04:41:14.352Z,47.41
2018-01-07T04:42:14.345Z,47.61
2018-01-07T04:43:14.347Z,47.61
2018-01-07T04:44:14.361Z,47.51
2018-01-07T04:45:14.337Z,47.13
2018-01-07T04:46:14.353Z,47.41
2018-01-07T04:47:14.331Z,47.51
2018-01-07T04:48:14.353Z,47.51
2018-01-07T04:49:14.334Z,47.61
2018-01-07T04:50:14.329Z,47.51
2018-01-07T04:51:14.327Z,47.61
2018-01-07T04:52:14.333Z,47.61
2018-01-07T04:53:14.329Z,47.51
2018-01-07T04:54:14.335Z,47.61
2018-01-07T04:55:14.318Z,47.61
2018-01-07T04:56:14.314Z,47.61
2018-01-07T04:57:14.309Z,47.51
2018-01-07T04:58:14.319Z,47.61
2018-01-07T04:59:14.314Z,47.61
2018-01-07T05:00:14.322Z,47.51
2018-01-07T05:01:14.319Z,47.41
2018-01-07T05:02:14.312Z,47.51
2018-01-07T05:03:14.307Z,47.61
2018-01-07T05:04:14.302Z,47.61
2018-01-07T05:05:14.286Z,47.61
2018-01-07T05:06:14.296Z,47.51
2018-01-07T05:07:14.287Z,47.61
2018-01-07T05:08:14.288Z,47.41
2018-01-07T05:09:14.282Z,47.51
2018-01-07T05:10:14.279Z,47.51
2018-01-07T05:11:14.283Z,47.51
2018-01-07T05:12:14.276Z,47.61
2018-01-07T05:13:14.274Z,47.51
2018-01-07T05:14:14.289Z,47.61
2018-01-07T05:15:14.278Z,47.61
2018-01-07T05:16:14.267Z,47.51
2018-01-07T05:17:14.267Z,47.51
2018-01-07T05:18:14.259Z,47.51
2018-01-07T05:19:14.262Z,47.51
2018-01-07T05:20:14.264Z,47.41
2018-01-07T05:21:14.264Z,47.51
2018-01-07T05:22:14.268Z,47.41
2018-01-07T05:23:14.249Z,47.51
2018-01-07T05:24:14.253Z,47.41
2018-01-07T05:25:14.248Z,47.51
2018-01-07T05:26:14.253Z,47.51
2018-01-07T05:27:14.233Z,47.61
2018-01-07T05:28:14.242Z,47.41
2018-01-07T05:29:14.244Z,47.61
2018-01-07T05:30:14.239Z,47.41
2018-01-07T05:31:14.241Z,47.22
2018-01-07T05:32:14.235Z,47.41
2018-01-07T05:33:14.227Z,47.51
2018-01-07T05:34:14.225Z,47.51
2018-01-07T05:35:14.234Z,47.51
2018-01-07T05:36:14.224Z,47.61
2018-01-07T05:37:14.222Z,47.31
2018-01-07T05:38:14.217Z,47.31
2018-01-07T05:39:14.218Z,47.22
2018-01-07T05:40:14.223Z,47.31
2018-01-07T05:41:14.224Z,47.31
2018-01-07T05:42:14.199Z,47.22
2018-01-07T05:43:14.245Z,47.41
2018-01-07T05:44:14.204Z,47.31
2018-01-07T05:45:14.207Z,47.41
2018-01-07T05:46:14.196Z,47.31
2018-01-07T05:47:14.195Z,47.20
2018-01-07T05:48:14.188Z,47.41
2018-01-07T05:49:14.189Z,47.13
2018-01-07T05:50:14.192Z,47.13
2018-01-07T05:51:14.187Z,47.31
2018-01-07T05:52:14.192Z,47.30
2018-01-07T05:53:14.193Z,47.31
2018-01-07T05:54:14.193Z,47.20
2018-01-07T05:55:14.175Z,47.20
2018-01-07T05:56:14.164Z,47.30
2018-01-07T05:57:14.168Z,47.20
2018-01-07T05:58:14.168Z,47.30
2018-01-07T05:59:14.163Z,47.30
2018-01-07T06:00:14.168Z,47.31
2018-01-07T06:01:14.162Z,47.20
2018-01-07T06:02:14.158Z,47.30
2018-01-07T06:03:14.207Z,47.13
2018-01-07T06:04:14.153Z,47.13
2018-01-07T06:05:14.150Z,47.22
2018-01-07T06:06:14.150Z,47.20
2018-01-07T06:07:14.144Z,47.20
2018-01-07T06:08:14.154Z,47.22
2018-01-07T06:09:14.140Z,47.30
2018-01-07T06:10:14.140Z,47.31
2018-01-07T06:11:14.139Z,47.30
2018-01-07T06:12:14.138Z,47.30
2018-01-07T06:13:14.134Z,47.51
2018-01-07T06:14:14.126Z,47.31
2018-01-07T06:15:14.124Z,47.30
2018-01-07T06:16:14.122Z,47.30
2018-01-07T06:17:14.115Z,47.58
2018-01-07T06:18:14.110Z,47.58
2018-01-07T06:19:14.121Z,47.20
2018-01-07T06:20:14.105Z,47.30
2018-01-07T06:21:14.112Z,47.22
2018-01-07T06:22:14.117Z,47.22
2018-01-07T06:23:14.108Z,47.20
2018-01-07T06:24:14.105Z,47.30
2018-01-07T06:25:14.104Z,47.31
2018-01-07T06:26:14.109Z,47.61
2018-01-07T06:27:14.147Z,47.31
2018-01-07T06:28:14.095Z,47.31
2018-01-07T06:29:14.089Z,47.41
2018-01-07T06:30:14.082Z,47.51
2018-01-07T06:31:14.089Z,47.61
2018-01-07T06:32:14.084Z,47.51
2018-01-07T06:33:14.083Z,47.51
2018-01-07T06:34:14.079Z,47.31
2018-01-07T06:35:14.074Z,47.41
2018-01-07T06:36:14.075Z,47.22
2018-01-07T06:37:14.085Z,47.31
2018-01-07T06:38:14.068Z,47.22
2018-01-07T06:39:14.071Z,47.13
2018-01-07T06:40:14.062Z,47.31
2018-01-07T06:41:14.064Z,47.31
2018-01-07T06:42:14.073Z,47.31
2018-01-07T06:43:14.056Z,47.22
2018-01-07T06:44:14.056Z,47.22
2018-01-07T06:45:14.045Z,47.31
2018-01-07T06:46:14.062Z,47.22
2018-01-07T06:47:14.044Z,47.13
2018-01-07T06:48:14.049Z,47.22
2018-01-07T06:49:14.040Z,47.22
2018-01-07T06:50:14.041Z,47.13
2018-01-07T06:51:14.052Z,47.22
2018-01-07T06:52:14.036Z,47.22
2018-01-07T06:53:14.036Z,47.13
2018-01-07T06:54:14.034Z,46.74
2018-01-07T06:55:14.025Z,47.13
2018-01-07T06:56:14.030Z,47.13
2018-01-07T06:57:14.016Z,47.22
2018-01-07T06:58:14.020Z,47.22
2018-01-07T06:59:14.026Z,46.74
2018-01-07T07:00:14.016Z,47.13
2018-01-07T07:01:14.040Z,47.13
2018-01-07T07:02:14.015Z,47.22
2018-01-07T07:03:14.005Z,47.22
2018-01-07T07:04:14.006Z,47.31
2018-01-07T07:05:14.006Z,47.31
2018-01-07T07:06:14.004Z,47.22
2018-01-07T07:07:13.997Z,47.22
2018-01-07T07:08:13.992Z,47.31
2018-01-07T07:09:13.989Z,47.41
2018-01-07T07:10:14.000Z,47.03
2018-01-07T07:11:14.000Z,47.31
2018-01-07T07:12:13.994Z,47.13
2018-01-07T07:13:13.986Z,47.13
2018-01-07T07:14:13.980Z,47.03
2018-01-07T07:15:13.990Z,47.31
2018-01-07T07:16:13.984Z,47.31
2018-01-07T07:17:13.976Z,47.03
2018-01-07T07:18:13.969Z,47.31
2018-01-07T07:19:13.964Z,47.13
2018-01-07T07:20:13.972Z,47.41
2018-01-07T07:21:13.972Z,47.22
2018-01-07T07:22:13.956Z,47.13
2018-01-07T07:23:13.957Z,47.31
2018-01-07T07:24:13.954Z,47.22
2018-01-07T07:25:13.951Z,47.31
2018-01-07T07:26:13.951Z,47.03
2018-01-07T07:27:13.953Z,47.13
2018-01-07T07:28:13.950Z,47.13
2018-01-07T07:29:13.966Z,47.13
2018-01-07T07:30:13.940Z,47.31
2018-01-07T07:31:13.937Z,46.93
2018-01-07T07:32:13.939Z,47.22
2018-01-07T07:33:13.930Z,47.22
2018-01-07T07:34:13.934Z,47.51
2018-01-07T07:35:13.942Z,47.31
2018-01-07T07:36:13.932Z,47.22
2018-01-07T07:37:13.927Z,47.22
2018-01-07T07:38:13.925Z,47.31
2018-01-07T07:39:13.926Z,47.51
2018-01-07T07:40:13.921Z,47.31
2018-01-07T07:41:13.913Z,47.31
2018-01-07T07:42:13.916Z,47.41
2018-01-07T07:43:13.907Z,47.31
2018-01-07T07:44:13.921Z,47.51
2018-01-07T07:45:13.906Z,47.22
2018-01-07T07:46:13.906Z,47.22
2018-01-07T07:47:13.915Z,47.22
2018-01-07T07:48:13.900Z,47.22
2018-01-07T07:49:13.906Z,47.51
2018-01-07T07:50:13.893Z,47.22
2018-01-07T07:51:13.891Z,47.03
2018-01-07T07:52:13.897Z,47.31
2018-01-07T07:53:13.885Z,47.31
2018-01-07T07:54:13.888Z,47.31
2018-01-07T07:55:13.891Z,47.51
2018-01-07T07:56:13.878Z,47.51
2018-01-07T07:57:13.880Z,47.61
2018-01-07T07:58:13.876Z,47.41
2018-01-07T07:59:13.882Z,47.51
2018-01-07T08:00:13.866Z,47.51
2018-01-07T08:01:13.858Z,47.51
2018-01-07T08:02:13.860Z,47.41
2018-01-07T08:03:13.872Z,47.51
2018-01-07T08:04:13.859Z,47.41
2018-01-07T08:05:13.862Z,47.70
2018-01-07T08:06:13.855Z,47.70
2018-01-07T08:07:13.845Z,47.41
2018-01-07T08:08:13.861Z,47.41
2018-01-07T08:09:13.843Z,47.51
2018-01-07T08:10:13.840Z,47.51
2018-01-07T08:11:13.850Z,47.31
2018-01-07T08:12:13.834Z,47.51
2018-01-07T08:13:13.840Z,47.51
2018-01-07T08:14:13.831Z,47.41
2018-01-07T08:15:13.836Z,47.03
2018-01-07T08:16:13.841Z,47.31
2018-01-07T08:17:13.832Z,47.51
2018-01-07T08:18:13.817Z,47.31
2018-01-07T08:19:13.825Z,47.70
2018-01-07T08:20:13.826Z,47.61
2018-01-07T08:21:13.825Z,47.41
2018-01-07T08:22:13.831Z,47.41
2018-01-07T08:23:13.815Z,47.41
2018-01-07T08:24:13.813Z,47.61
2018-01-07T08:25:13.813Z,47.31
2018-01-07T08:26:13.811Z,47.51
2018-01-07T08:27:13.812Z,47.51
2018-01-07T08:28:13.801Z,47.61
2018-01-07T08:29:13.824Z,47.61
2018-01-07T08:30:13.828Z,47.31
2018-01-07T08:31:13.809Z,47.51
2018-01-07T08:32:13.789Z,47.51
2018-01-07T08:33:13.788Z,47.61
2018-01-07T08:34:13.781Z,47.61
2018-01-07T08:35:13.792Z,47.51
2018-01-07T08:36:13.782Z,47.49
2018-01-07T08:37:13.803Z,47.51
2018-01-07T08:38:13.782Z,47.41
2018-01-07T08:39:13.768Z,47.61
2018-01-07T08:40:13.775Z,47.70
2018-01-07T08:41:13.778Z,47.61
2018-01-07T08:42:13.773Z,47.41
2018-01-07T08:43:13.771Z,47.51
2018-01-07T08:44:13.761Z,47.61
2018-01-07T08:45:13.757Z,47.61
2018-01-07T08:46:13.766Z,47.61
2018-01-07T08:47:13.770Z,47.61
2018-01-07T08:48:13.756Z,47.51
2018-01-07T08:49:13.755Z,47.61
2018-01-07T08:50:13.762Z,47.51
2018-01-07T08:51:13.734Z,47.70
2018-01-07T08:52:13.752Z,47.51
2018-01-07T08:53:13.739Z,47.51
2018-01-07T08:54:13.730Z,47.61
2018-01-07T08:55:13.734Z,47.70
2018-01-07T08:56:13.735Z,47.70
2018-01-07T08:57:13.731Z,47.51
2018-01-07T08:58:13.731Z,47.51
2018-01-07T08:59:13.722Z,47.61
2018-01-07T09:00:13.719Z,47.51
2018-01-07T09:01:13.721Z,47.22
2018-01-07T09:02:13.718Z,47.31
2018-01-07T09:03:13.747Z,47.03
2018-01-07T09:04:13.709Z,47.03
2018-01-07T09:05:13.704Z,47.31
2018-01-07T09:06:13.704Z,47.22
2018-01-07T09:07:13.702Z,47.22
2018-01-07T09:08:13.697Z,47.31
2018-01-07T09:09:13.702Z,47.31
2018-01-07T09:10:13.751Z,46.93
2018-01-07T09:11:13.704Z,46.84
2018-01-07T09:12:13.696Z,46.84
2018-01-07T09:13:13.682Z,46.55
2018-01-07T09:14:13.702Z,47.13
2018-01-07T09:15:13.689Z,46.64
2018-01-07T09:16:13.674Z,46.93
2018-01-07T09:17:13.683Z,46.93
2018-01-07T09:18:13.684Z,47.03
2018-01-07T09:19:13.675Z,47.13
2018-01-07T09:20:13.678Z,47.03
2018-01-07T09:21:13.672Z,47.13
2018-01-07T09:22:13.664Z,46.93
2018-01-07T09:23:13.669Z,46.55
2018-01-07T09:24:13.666Z,46.84
2018-01-07T09:25:13.679Z,47.22
2018-01-07T09:26:13.674Z,46.93
2018-01-07T09:27:13.654Z,46.64
2018-01-07T09:28:13.652Z,46.84
2018-01-07T09:29:13.663Z,46.74
2018-01-07T09:30:13.657Z,46.45
2018-01-07T09:31:13.640Z,46.93
2018-01-07T09:32:13.638Z,46.67
2018-01-07T09:33:13.638Z,46.64
2018-01-07T09:34:13.644Z,46.55
2018-01-07T09:35:13.641Z,47.13
2018-01-07T09:36:13.628Z,47.22
2018-01-07T09:37:13.633Z,46.74
2018-01-07T09:38:13.630Z,47.13
2018-01-07T09:39:13.632Z,46.93
2018-01-07T09:40:13.624Z,47.03
2018-01-07T09:41:13.623Z,47.03
2018-01-07T09:42:13.629Z,46.55
2018-01-07T09:43:13.618Z,46.55
2018-01-07T09:44:13.599Z,46.67
2018-01-07T09:45:13.619Z,46.64
2018-01-07T09:46:13.630Z,46.77
2018-01-07T09:47:13.610Z,46.16
2018-01-07T09:48:13.599Z,46.16
2018-01-07T09:49:13.615Z,46.64
2018-01-07T09:50:13.598Z,46.67
2018-01-07T09:51:13.601Z,46.36
2018-01-07T09:52:13.591Z,46.86
2018-01-07T09:53:13.595Z,46.57
2018-01-07T09:54:13.590Z,46.77
2018-01-07T09:55:13.582Z,46.16
2018-01-07T09:56:13.597Z,46.74
2018-01-07T09:57:13.594Z,46.47
2018-01-07T09:58:13.578Z,46.57
2018-01-07T09:59:13.593Z,46.26
2018-01-07T10:00:13.582Z,46.47
2018-01-07T10:01:13.577Z,46.47
2018-01-07T10:02:13.571Z,46.55
2018-01-07T10:03:13.574Z,46.57
2018-01-07T10:04:13.570Z,46.55
2018-01-07T10:05:13.557Z,46.55
2018-01-07T10:06:13.590Z,46.64
2018-01-07T10:07:13.562Z,46.19
2018-01-07T10:08:13.553Z,46.45
2018-01-07T10:09:13.551Z,46.36
2018-01-07T10:10:13.566Z,46.55
2018-01-07T10:11:13.554Z,46.55
2018-01-07T10:12:13.574Z,46.45
2018-01-07T10:13:13.550Z,46.57
2018-01-07T10:14:13.550Z,46.84
2018-01-07T10:15:13.546Z,46.57
2018-01-07T10:16:13.541Z,46.64
2018-01-07T10:17:13.569Z,46.84
2018-01-07T10:18:13.532Z,46.26
2018-01-07T10:19:13.526Z,46.55
2018-01-07T10:20:13.533Z,46.74
2018-01-07T10:21:13.593Z,46.55
2018-01-07T10:22:13.525Z,46.26
2018-01-07T10:23:13.524Z,46.55
2018-01-07T10:24:13.536Z,46.55
2018-01-07T10:25:13.519Z,46.74
2018-01-07T10:26:13.525Z,46.26
2018-01-07T10:27:13.509Z,46.16
2018-01-07T10:28:13.522Z,46.45
2018-01-07T10:29:13.505Z,46.45
2018-01-07T10:30:13.526Z,46.74
2018-01-07T10:31:13.502Z,46.84
2018-01-07T10:32:13.513Z,46.64
2018-01-07T10:33:13.509Z,46.64
2018-01-07T10:34:13.492Z,46.36
2018-01-07T10:35:13.500Z,46.64
2018-01-07T10:36:13.502Z,46.16
2018-01-07T10:37:13.491Z,46.74
2018-01-07T10:38:13.496Z,46.26
2018-01-07T10:39:13.490Z,46.45
2018-01-07T10:40:13.501Z,46.55
2018-01-07T10:41:13.504Z,46.84
2018-01-07T10:42:13.460Z,46.84
2018-01-07T10:43:13.484Z,46.16
2018-01-07T10:44:13.478Z,46.64
2018-01-07T10:45:13.485Z,46.45
2018-01-07T10:46:13.465Z,46.45
2018-01-07T10:47:13.474Z,46.45
2018-01-07T10:48:13.485Z,46.64
2018-01-07T10:49:13.475Z,46.55
2018-01-07T10:50:13.456Z,46.55
2018-01-07T10:51:13.468Z,46.64
2018-01-07T10:52:13.440Z,46.26
2018-01-07T10:53:13.456Z,46.26
2018-01-07T10:54:13.450Z,46.26
2018-01-07T10:55:13.446Z,46.45
2018-01-07T10:56:13.441Z,46.36
2018-01-07T10:57:13.456Z,46.36
2018-01-07T10:58:13.424Z,46.45
2018-01-07T10:59:13.447Z,46.84
2018-01-07T11:00:13.435Z,46.45
2018-01-07T11:01:13.427Z,46.36
2018-01-07T11:02:13.449Z,46.84
2018-01-07T11:03:13.425Z,46.84
2018-01-07T11:04:13.426Z,46.84
2018-01-07T11:05:13.436Z,46.84
2018-01-07T11:06:13.429Z,46.84
2018-01-07T11:07:13.418Z,46.84
2018-01-07T11:08:13.419Z,46.55
2018-01-07T11:09:13.400Z,46.84
2018-01-07T11:10:13.404Z,46.84
2018-01-07T11:11:13.402Z,46.84
2018-01-07T11:12:13.406Z,46.84
2018-01-07T11:13:13.405Z,46.84
2018-01-07T11:14:13.392Z,46.74
2018-01-07T11:15:13.399Z,46.84
2018-01-07T11:16:13.389Z,46.84
2018-01-07T11:17:13.392Z,46.84
2018-01-07T11:18:13.407Z,46.84
2018-01-07T11:19:13.401Z,46.84
2018-01-07T11:20:13.385Z,46.55
2018-01-07T11:21:13.382Z,46.84
2018-01-07T11:22:13.375Z,46.74
2018-01-07T11:23:13.376Z,46.84
2018-01-07T11:24:13.377Z,46.84
2018-01-07T11:25:13.385Z,46.74
2018-01-07T11:26:13.370Z,46.84
2018-01-07T11:27:13.376Z,46.84
2018-01-07T11:28:13.362Z,46.84
2018-01-07T11:29:13.385Z,46.74
2018-01-07T11:30:13.390Z,46.55
2018-01-07T11:31:13.356Z,46.55
2018-01-07T11:32:13.399Z,46.93
2018-01-07T11:33:13.357Z,46.64
2018-01-07T11:34:13.351Z,47.13
2018-01-07T11:35:13.343Z,46.64
2018-01-07T11:36:13.340Z,46.93
2018-01-07T11:37:13.343Z,46.93
2018-01-07T11:38:13.341Z,46.93
2018-01-07T11:39:13.348Z,47.13
2018-01-07T11:40:13.327Z,47.03
2018-01-07T11:41:13.331Z,47.13
2018-01-07T11:42:13.322Z,47.22
2018-01-07T11:43:13.335Z,47.13
2018-01-07T11:44:13.319Z,47.31
2018-01-07T11:45:13.318Z,47.31
2018-01-07T11:46:13.985Z,47.13
2018-01-07T11:47:13.335Z,47.13
2018-01-07T11:48:13.318Z,47.13
2018-01-07T11:49:13.340Z,47.22
2018-01-07T11:50:13.314Z,47.22
2018-01-07T11:51:13.307Z,47.20
2018-01-07T11:52:13.326Z,47.22
2018-01-07T11:53:13.300Z,47.13
2018-01-07T11:54:13.298Z,47.13
2018-01-07T11:55:13.345Z,47.31
2018-01-07T11:56:13.296Z,47.10
2018-01-07T11:57:13.296Z,47.30
2018-01-07T11:58:13.289Z,47.30
2018-01-07T11:59:13.283Z,47.20
2018-01-07T12:00:13.282Z,47.13
2018-01-07T12:01:13.281Z,47.31
2018-01-07T12:02:13.292Z,46.74
2018-01-07T12:03:13.282Z,47.03
2018-01-07T12:04:13.286Z,46.55
2018-01-07T12:05:13.282Z,47.03
2018-01-07T12:06:13.264Z,46.84
2018-01-07T12:07:13.304Z,46.64
2018-01-07T12:08:13.252Z,46.74
2018-01-07T12:09:13.281Z,46.84
2018-01-07T12:10:13.257Z,46.84
2018-01-07T12:11:13.246Z,46.55
2018-01-07T12:12:13.261Z,46.45
2018-01-07T12:13:13.254Z,46.26
2018-01-07T12:14:13.250Z,46.55
2018-01-07T12:15:13.263Z,46.74
2018-01-07T12:16:13.244Z,46.16
2018-01-07T12:17:13.239Z,46.36
2018-01-07T12:18:13.238Z,46.06
2018-01-07T12:19:13.253Z,46.55
2018-01-07T12:20:13.248Z,46.45
2018-01-07T12:21:13.238Z,46.26
2018-01-07T12:22:13.258Z,46.16
2018-01-07T12:23:13.227Z,46.16
2018-01-07T12:24:13.228Z,46.36
2018-01-07T12:25:13.239Z,46.55
2018-01-07T12:26:13.218Z,46.55
2018-01-07T12:27:13.208Z,46.26
2018-01-07T12:28:13.233Z,46.36
2018-01-07T12:29:13.229Z,46.45
2018-01-07T12:30:13.207Z,46.36
2018-01-07T12:31:13.210Z,46.16
2018-01-07T12:32:13.196Z,46.36
2018-01-07T12:33:13.207Z,46.26
2018-01-07T12:34:13.189Z,46.55
2018-01-07T12:35:13.202Z,46.36
2018-01-07T12:36:13.192Z,46.36
2018-01-07T12:37:13.199Z,46.28
2018-01-07T12:38:13.194Z,46.26
2018-01-07T12:39:13.187Z,46.45
2018-01-07T12:40:13.206Z,46.55
2018-01-07T12:41:13.202Z,46.16
2018-01-07T12:42:13.182Z,46.26
2018-01-07T12:43:13.194Z,46.55
2018-01-07T12:44:13.198Z,46.26
2018-01-07T12:45:13.180Z,46.55
2018-01-07T12:46:13.186Z,46.45
2018-01-07T12:47:13.174Z,46.55
2018-01-07T12:48:13.168Z,46.26
2018-01-07T12:49:13.167Z,46.26
2018-01-07T12:50:13.183Z,46.55
2018-01-07T12:51:13.149Z,46.55
2018-01-07T12:52:13.176Z,46.55